Time;durP1;ratioP1;P1;durP2;ratioP2;P2;SDS_P1;SDS_P2;PMS_P1;PMS_P2;Temp;Humidity;BMP_temperature;BMP_pressure;BME280_temperature;BME280_humidity;BME280_pressure;Samples;Min_cycle;Max_cycle;Signal;HPM_P1;HPM_P2
2022/12/13 00:01:37;;;;;;;36.53;23.60;;;;;;;;;;5091138;28;20519;-75
2022/12/13 00:04:07;;;;;;;32.30;24.00;;;;;;;;;;5090149;28;20444;-77
2022/12/13 00:06:35;;;;;;;33.37;22.27;;;;;;;;;;5090643;28;20468;-74
2022/12/13 00:09:02;;;;;;;30.77;22.70;;;;;;;;;;5090645;28;20451;-76
2022/12/13 00:11:29;;;;;;;32.70;23.10;;;;;;;;;;5091310;28;20483;-75
2022/12/13 00:13:57;;;;;;;34.10;23.23;;;;;;;;;;5091143;28;20442;-75
2022/12/13 00:16:24;;;;;;;37.30;24.10;;;;;;;;;;5091203;28;20483;-76
2022/12/13 00:18:52;;;;;;;31.63;24.13;;;;;;;;;;5089800;28;20943;-75
2022/12/13 00:21:22;;;;;;;33.13;23.60;;;;;;;;;;5090181;28;20521;-75
2022/12/13 00:23:49;;;;;;;32.10;23.37;;;;;;;;;;5089813;28;20458;-75
2022/12/13 00:26:17;;;;;;;34.30;24.30;;;;;;;;;;5090064;28;20463;-75
2022/12/13 00:28:45;;;;;;;30.30;23.23;;;;;;;;;;5089379;28;21017;-77
2022/12/13 00:31:12;;;;;;;34.53;24.47;;;;;;;;;;5089885;28;20454;-76
2022/12/13 00:33:39;;;;;;;44.60;28.77;;;;;;;;;;5089392;28;20444;-77
2022/12/13 00:36:07;;;;;;;38.93;26.10;;;;;;;;;;5089645;28;21168;-76
2022/12/13 00:38:36;;;;;;;32.43;23.53;;;;;;;;;;5089871;28;20472;-76
2022/12/13 00:41:10;;;;;;;32.07;22.70;;;;;;;;;;5089821;28;20472;-76
2022/12/13 00:43:37;;;;;;;33.00;22.50;;;;;;;;;;5090144;28;20428;-77
2022/12/13 00:46:04;;;;;;;29.43;21.90;;;;;;;;;;5101851;28;20461;-76
2022/12/13 00:48:31;;;;;;;37.27;23.53;;;;;;;;;;5120501;28;20426;-75
2022/12/13 00:50:58;;;;;;;29.67;22.17;;;;;;;;;;5120709;28;20433;-72
2022/12/13 00:53:25;;;;;;;27.90;21.63;;;;;;;;;;5119541;28;20434;-74
2022/12/13 00:55:54;;;;;;;29.07;21.93;;;;;;;;;;5095588;28;20456;-76
2022/12/13 00:58:21;;;;;;;30.80;23.10;;;;;;;;;;5093474;28;20447;-75
2022/12/13 01:00:48;;;;;;;33.23;22.13;;;;;;;;;;5093127;28;20483;-74
2022/12/13 01:03:24;;;;;;;31.47;23.47;;;;;;;;;;5092817;28;20445;-77
2022/12/13 01:05:51;;;;;;;28.97;21.10;;;;;;;;;;5093446;28;20860;-76
2022/12/13 01:08:18;;;;;;;32.70;21.80;;;;;;;;;;5093248;28;20451;-75
2022/12/13 01:10:46;;;;;;;35.00;22.80;;;;;;;;;;5092940;28;20436;-76
2022/12/13 01:13:15;;;;;;;35.10;23.70;;;;;;;;;;5092786;28;20452;-75
2022/12/13 01:15:42;;;;;;;32.87;22.30;;;;;;;;;;5093097;28;20463;-75
2022/12/13 01:18:09;;;;;;;27.07;22.33;;;;;;;;;;5092967;28;20526;-76
2022/12/13 01:20:36;;;;;;;29.13;21.77;;;;;;;;;;5092915;28;20476;-74
2022/12/13 01:23:04;;;;;;;35.77;23.00;;;;;;;;;;5089152;28;20453;-77
2022/12/13 01:25:32;;;;;;;31.03;21.90;;;;;;;;;;5083813;28;20467;-75
2022/12/13 01:27:59;;;;;;;30.23;21.83;;;;;;;;;;5092917;28;20448;-75
2022/12/13 01:30:27;;;;;;;33.60;23.77;;;;;;;;;;5093160;28;20435;-77
2022/12/13 01:32:55;;;;;;;27.70;21.87;;;;;;;;;;5092346;28;20452;-75
2022/12/13 01:35:22;;;;;;;35.20;24.20;;;;;;;;;;5092658;28;20460;-76
2022/12/13 01:37:49;;;;;;;29.80;22.80;;;;;;;;;;5092398;28;20456;-75
2022/12/13 01:40:16;;;;;;;32.40;23.00;;;;;;;;;;5094231;28;20472;-75
2022/12/13 01:42:43;;;;;;;34.27;24.90;;;;;;;;;;5106795;28;20440;-76
2022/12/13 01:45:22;;;;;;;33.10;22.87;;;;;;;;;;5100967;28;20455;-76
2022/12/13 01:47:52;;;;;;;39.72;26.05;;;;;;;;;;5092791;28;20424;-78
2022/12/13 01:50:22;;;;;;;35.45;23.17;;;;;;;;;;5092644;28;20190;-77
2022/12/13 01:52:50;;;;;;;35.47;24.17;;;;;;;;;;5091784;28;20217;-75
2022/12/13 01:55:19;;;;;;;33.63;23.00;;;;;;;;;;5094537;28;21196;-75
2022/12/13 01:57:47;;;;;;;28.07;21.43;;;;;;;;;;5108372;28;20450;-75
2022/12/13 02:00:14;;;;;;;31.07;22.80;;;;;;;;;;5096587;28;20482;-76
2022/12/13 02:02:41;;;;;;;33.27;22.60;;;;;;;;;;5107818;28;20440;-75
2022/12/13 02:05:11;;;;;;;31.40;22.90;;;;;;;;;;5107217;28;20446;-75
2022/12/13 02:07:40;;;;;;;31.10;22.20;;;;;;;;;;5090844;28;20435;-76
2022/12/13 02:10:08;;;;;;;31.73;24.25;;;;;;;;;;5089469;28;20443;-74
2022/12/13 02:12:36;;;;;;;33.58;22.40;;;;;;;;;;5090246;28;20206;-75
2022/12/13 02:15:06;;;;;;;29.90;22.30;;;;;;;;;;5089626;28;20197;-76
2022/12/13 02:17:39;;;;;;;33.03;23.60;;;;;;;;;;5089273;28;20572;-76
2022/12/13 02:20:27;;;;;;;36.95;25.58;;;;;;;;;;5089729;28;20207;-75
2022/12/13 02:23:04;;;;;;;31.48;23.40;;;;;;;;;;5088850;28;20866;-76
2022/12/13 02:25:52;;;;;;;32.03;23.57;;;;;;;;;;5089400;28;20222;-76
2022/12/13 02:28:31;;;;;;;33.72;22.65;;;;;;;;;;5083959;28;20448;-75
2022/12/13 02:31:04;;;;;;;28.30;21.57;;;;;;;;;;5089371;28;20232;-77
2022/12/13 02:33:36;;;;;;;28.10;22.45;;;;;;;;;;5088920;28;20459;-75
2022/12/13 02:36:07;;;;;;;35.70;25.70;;;;;;;;;;5089013;28;20231;-74
2022/12/13 02:38:37;;;;;;;35.07;22.80;;;;;;;;;;5089387;28;20555;-74
2022/12/13 02:41:07;;;;;;;32.42;22.83;;;;;;;;;;5088776;28;20501;-75
2022/12/13 02:43:38;;;;;;;33.37;23.50;;;;;;;;;;5088323;28;20201;-75
2022/12/13 02:46:08;;;;;;;33.17;24.38;;;;;;;;;;5088322;28;20472;-73
2022/12/13 02:48:38;;;;;;;29.83;22.02;;;;;;;;;;5089114;28;20206;-75
2022/12/13 02:51:06;;;;;;;37.92;24.02;;;;;;;;;;5089155;28;20206;-75
2022/12/13 02:53:33;;;;;;;34.73;25.30;;;;;;;;;;5088178;28;20201;-75
2022/12/13 02:56:00;;;;;;;35.10;24.37;;;;;;;;;;5088061;28;20456;-75
2022/12/13 02:58:30;;;;;;;30.50;22.50;;;;;;;;;;5088005;28;20943;-75
2022/12/13 03:01:02;;;;;;;38.80;22.87;;;;;;;;;;5088228;28;20491;-74
2022/12/13 03:03:39;;;;;;;34.65;23.30;;;;;;;;;;5094637;28;20432;-76
2022/12/13 03:06:28;;;;;;;34.67;23.60;;;;;;;;;;5094609;28;20647;-74
2022/12/13 03:08:57;;;;;;;32.27;21.77;;;;;;;;;;5097861;28;20432;-75
2022/12/13 03:11:27;;;;;;;28.00;21.58;;;;;;;;;;5094029;28;20445;-75
2022/12/13 03:13:54;;;;;;;31.63;22.75;;;;;;;;;;5098010;28;20192;-75
2022/12/13 03:16:27;;;;;;;32.33;22.58;;;;;;;;;;5112363;28;20197;-73
2022/12/13 03:18:58;;;;;;;33.53;23.73;;;;;;;;;;5116677;28;20176;-73
2022/12/13 03:21:25;;;;;;;31.35;21.35;;;;;;;;;;5115352;28;20211;-74
2022/12/13 03:23:52;;;;;;;31.52;23.10;;;;;;;;;;5093599;28;20205;-75
2022/12/13 03:26:21;;;;;;;29.88;21.60;;;;;;;;;;5091396;28;20222;-77
2022/12/13 03:28:48;;;;;;;35.72;24.25;;;;;;;;;;5100648;28;20198;-74
2022/12/13 03:31:16;;;;;;;34.72;23.17;;;;;;;;;;5101133;28;20198;-74
2022/12/13 03:33:43;;;;;;;33.80;22.93;;;;;;;;;;5101729;28;20221;-75
2022/12/13 03:36:12;;;;;;;30.90;22.50;;;;;;;;;;5100427;28;21006;-75
2022/12/13 03:38:39;;;;;;;33.67;23.77;;;;;;;;;;5096152;28;20443;-76
2022/12/13 03:41:09;;;;;;;30.43;22.87;;;;;;;;;;5097339;28;20225;-74
2022/12/13 03:43:37;;;;;;;30.80;22.42;;;;;;;;;;5094852;28;20500;-74
2022/12/13 03:46:04;;;;;;;35.90;23.93;;;;;;;;;;5099412;28;20244;-74
2022/12/13 03:48:31;;;;;;;33.38;22.98;;;;;;;;;;5099190;28;20446;-74
2022/12/13 03:50:59;;;;;;;33.45;23.30;;;;;;;;;;5099680;28;20205;-76
2022/12/13 03:53:27;;;;;;;30.87;21.43;;;;;;;;;;5098563;28;20202;-74
2022/12/13 03:55:54;;;;;;;33.00;23.10;;;;;;;;;;5096246;28;20464;-75
2022/12/13 03:58:21;;;;;;;44.47;27.75;;;;;;;;;;5097110;28;20440;-75
2022/12/13 04:00:49;;;;;;;36.15;24.35;;;;;;;;;;5094647;28;20217;-74
2022/12/13 04:03:16;;;;;;;33.40;24.02;;;;;;;;;;5093075;28;20205;-76
2022/12/13 04:05:43;;;;;;;31.63;23.48;;;;;;;;;;5094564;28;20225;-75
2022/12/13 04:08:10;;;;;;;39.50;25.48;;;;;;;;;;5091309;28;20205;-74
2022/12/13 04:10:38;;;;;;;29.75;21.85;;;;;;;;;;5091393;28;20208;-74
2022/12/13 04:15:50;;;;;;;36.87;24.13;;;;;;;;;;5091990;28;20279;-75
2022/12/13 04:18:18;;;;;;;36.10;23.60;;;;;;;;;;5093226;28;20439;-76
2022/12/13 04:20:45;;;;;;;33.80;22.30;;;;;;;;;;5095882;28;20221;-74
2022/12/13 04:23:12;;;;;;;34.47;23.48;;;;;;;;;;5098648;28;20456;-75
2022/12/13 04:25:41;;;;;;;35.75;23.45;;;;;;;;;;5094047;28;20221;-75
2022/12/13 04:28:08;;;;;;;34.05;23.80;;;;;;;;;;5093251;28;20205;-74
2022/12/13 04:30:36;;;;;;;33.22;22.50;;;;;;;;;;5093104;28;20198;-74
2022/12/13 04:33:04;;;;;;;34.78;23.90;;;;;;;;;;5094031;28;20240;-76
2022/12/13 04:35:31;;;;;;;32.90;22.70;;;;;;;;;;5093871;28;20226;-75
2022/12/13 04:37:58;;;;;;;34.30;22.05;;;;;;;;;;5110616;28;20204;-75
2022/12/13 04:40:25;;;;;;;32.03;22.38;;;;;;;;;;5109872;28;20206;-76
2022/12/13 04:42:54;;;;;;;35.78;25.40;;;;;;;;;;5081291;28;20203;-75
2022/12/13 04:45:22;;;;;;;32.42;23.08;;;;;;;;;;5072730;28;20230;-76
2022/12/13 04:47:49;;;;;;;37.42;26.85;;;;;;;;;;5073669;28;20267;-74
2022/12/13 04:50:16;;;;;;;37.50;24.08;;;;;;;;;;5072937;28;20210;-74
2022/12/13 04:52:44;;;;;;;30.67;21.38;;;;;;;;;;5081953;28;20233;-75
2022/12/13 04:55:11;;;;;;;31.17;23.35;;;;;;;;;;5089808;28;20206;-75
2022/12/13 04:57:38;;;;;;;30.85;23.63;;;;;;;;;;5077196;28;20198;-74
2022/12/13 05:00:08;;;;;;;30.15;21.98;;;;;;;;;;5082190;28;20218;-74
2022/12/13 05:02:35;;;;;;;35.05;22.63;;;;;;;;;;5088510;28;20873;-76
2022/12/13 05:05:02;;;;;;;32.63;22.00;;;;;;;;;;5082844;28;20194;-74
2022/12/13 05:07:29;;;;;;;33.38;22.65;;;;;;;;;;5079201;28;20198;-75
2022/12/13 05:09:56;;;;;;;28.77;20.80;;;;;;;;;;5079857;28;20213;-74
2022/12/13 05:12:23;;;;;;;33.13;23.23;;;;;;;;;;5081989;28;20212;-75
2022/12/13 05:14:51;;;;;;;33.75;22.55;;;;;;;;;;5080615;28;20194;-75
2022/12/13 05:17:19;;;;;;;33.33;22.63;;;;;;;;;;5081967;28;20257;-74
2022/12/13 05:19:46;;;;;;;32.67;22.10;;;;;;;;;;5082311;28;20210;-76
2022/12/13 05:22:15;;;;;;;28.23;21.58;;;;;;;;;;5089407;28;20365;-75
2022/12/13 05:24:43;;;;;;;33.50;22.08;;;;;;;;;;5080687;28;20207;-76
2022/12/13 05:27:11;;;;;;;33.55;22.50;;;;;;;;;;5077450;28;20310;-75
2022/12/13 05:29:38;;;;;;;30.27;21.75;;;;;;;;;;5077402;28;20206;-76
2022/12/13 05:32:05;;;;;;;33.25;22.50;;;;;;;;;;5073497;28;20407;-74
2022/12/13 05:34:34;;;;;;;31.55;21.52;;;;;;;;;;5080121;28;20210;-74
2022/12/13 05:37:01;;;;;;;31.65;22.05;;;;;;;;;;5081544;28;20214;-75
2022/12/13 05:39:28;;;;;;;28.65;21.65;;;;;;;;;;5093894;28;20216;-76
2022/12/13 05:41:56;;;;;;;32.00;22.52;;;;;;;;;;5096672;28;20289;-74
2022/12/13 05:44:23;;;;;;;30.60;21.85;;;;;;;;;;5109952;28;20245;-74
2022/12/13 05:46:50;;;;;;;35.85;23.83;;;;;;;;;;5119486;28;20225;-75
2022/12/13 05:49:17;;;;;;;30.00;20.52;;;;;;;;;;5118548;28;20176;-74
2022/12/13 05:51:45;;;;;;;32.10;22.33;;;;;;;;;;5113531;28;20197;-74
2022/12/13 05:54:12;;;;;;;31.20;20.33;;;;;;;;;;5113138;28;20212;-74
2022/12/13 05:56:39;;;;;;;34.88;21.13;;;;;;;;;;5114574;28;20222;-75
2022/12/13 05:59:06;;;;;;;29.17;22.08;;;;;;;;;;5117030;28;20231;-75
2022/12/13 06:01:33;;;;;;;32.30;21.17;;;;;;;;;;5117704;28;20210;-75
2022/12/13 06:04:01;;;;;;;71.30;45.83;;;;;;;;;;5117646;28;20260;-75
2022/12/13 06:06:28;;;;;;;31.90;22.65;;;;;;;;;;5117373;28;20265;-76
2022/12/13 06:08:56;;;;;;;33.15;23.45;;;;;;;;;;5118782;28;20189;-75
2022/12/13 06:11:23;;;;;;;28.05;20.75;;;;;;;;;;5118479;28;20207;-75
2022/12/13 06:13:52;;;;;;;27.35;20.52;;;;;;;;;;5118350;28;20178;-75
2022/12/13 06:16:19;;;;;;;35.63;21.20;;;;;;;;;;5118600;28;20202;-75
2022/12/13 06:18:46;;;;;;;29.90;21.85;;;;;;;;;;5116394;28;20198;-75
2022/12/13 06:21:13;;;;;;;30.67;21.88;;;;;;;;;;5114934;28;20309;-80
2022/12/13 06:23:40;;;;;;;35.78;21.80;;;;;;;;;;5113007;28;20205;-75
2022/12/13 06:26:09;;;;;;;27.75;20.88;;;;;;;;;;5096939;28;20226;-75
2022/12/13 06:28:36;;;;;;;29.63;21.15;;;;;;;;;;5095752;28;20212;-75
2022/12/13 06:31:03;;;;;;;31.08;20.75;;;;;;;;;;5095965;28;20217;-75
2022/12/13 06:33:34;;;;;;;26.17;19.58;;;;;;;;;;5095604;28;20248;-76
2022/12/13 06:36:01;;;;;;;30.65;20.23;;;;;;;;;;5111891;28;20221;-74
2022/12/13 06:38:28;;;;;;;29.70;20.85;;;;;;;;;;5116685;28;20192;-75
2022/12/13 06:40:55;;;;;;;27.80;21.17;;;;;;;;;;5117355;28;20178;-75
2022/12/13 06:43:24;;;;;;;29.15;20.25;;;;;;;;;;5116152;28;20182;-75
2022/12/13 06:45:51;;;;;;;31.00;21.55;;;;;;;;;;5109847;28;20229;-76
2022/12/13 06:48:18;;;;;;;28.83;20.98;;;;;;;;;;5105203;28;20212;-77
2022/12/13 06:50:45;;;;;;;31.20;21.50;;;;;;;;;;5100540;28;20206;-75
2022/12/13 06:53:12;;;;;;;38.40;21.50;;;;;;;;;;5095419;28;20459;-76
2022/12/13 06:55:39;;;;;;;32.55;22.00;;;;;;;;;;5095207;28;20588;-75
2022/12/13 06:58:06;;;;;;;28.70;20.55;;;;;;;;;;5100292;28;20205;-75
2022/12/13 07:00:34;;;;;;;33.55;21.90;;;;;;;;;;5096446;28;20838;-75
2022/12/13 07:03:01;;;;;;;30.92;21.80;;;;;;;;;;5093181;28;20297;-75
2022/12/13 07:05:28;;;;;;;39.75;23.23;;;;;;;;;;5091858;28;20241;-77
2022/12/13 07:07:55;;;;;;;34.35;23.60;;;;;;;;;;5084912;28;20208;-75
2022/12/13 07:10:22;;;;;;;30.77;21.85;;;;;;;;;;5092835;28;20213;-77
2022/12/13 07:12:50;;;;;;;30.38;21.65;;;;;;;;;;5092296;28;20677;-77
2022/12/13 07:15:17;;;;;;;29.38;21.33;;;;;;;;;;5095994;28;20201;-75
2022/12/13 07:17:45;;;;;;;34.38;22.42;;;;;;;;;;5094797;28;20194;-75
2022/12/13 07:20:14;;;;;;;29.47;20.60;;;;;;;;;;5107338;28;20194;-76
2022/12/13 07:22:41;;;;;;;28.58;20.33;;;;;;;;;;5100595;28;20472;-76
2022/12/13 07:25:09;;;;;;;31.50;22.10;;;;;;;;;;5095510;28;20205;-74
2022/12/13 07:27:36;;;;;;;24.80;21.05;;;;;;;;;;5105677;28;20212;-75
2022/12/13 07:30:04;;;;;;;33.05;21.73;;;;;;;;;;5109211;28;20202;-75
2022/12/13 07:32:31;;;;;;;32.17;20.67;;;;;;;;;;5108220;28;20204;-74
2022/12/13 07:34:59;;;;;;;27.17;20.60;;;;;;;;;;5110911;28;20202;-75
2022/12/13 07:37:26;;;;;;;33.40;21.15;;;;;;;;;;5106887;28;20228;-75
2022/12/13 07:39:53;;;;;;;31.52;21.50;;;;;;;;;;5101349;28;20206;-76
2022/12/13 07:42:20;;;;;;;30.77;22.55;;;;;;;;;;5098261;28;20217;-75
2022/12/13 07:44:47;;;;;;;28.42;22.02;;;;;;;;;;5097832;28;20201;-76
2022/12/13 07:47:14;;;;;;;30.65;21.77;;;;;;;;;;5097566;28;20224;-75
2022/12/13 07:49:41;;;;;;;30.45;20.67;;;;;;;;;;5097259;28;20319;-75
2022/12/13 07:52:12;;;;;;;29.02;21.52;;;;;;;;;;5096536;28;20231;-75
2022/12/13 07:54:39;;;;;;;32.00;21.10;;;;;;;;;;5096377;28;20207;-77
2022/12/13 07:57:06;;;;;;;29.05;20.80;;;;;;;;;;5098682;28;20255;-77
2022/12/13 07:59:33;;;;;;;30.70;20.98;;;;;;;;;;5095507;28;20209;-75
2022/12/13 08:02:00;;;;;;;31.45;20.67;;;;;;;;;;5094736;28;20218;-77
2022/12/13 08:04:28;;;;;;;29.52;20.40;;;;;;;;;;5094122;28;20209;-77
2022/12/13 08:06:55;;;;;;;30.60;20.35;;;;;;;;;;5103239;28;20218;-76
2022/12/13 08:09:24;;;;;;;32.60;21.90;;;;;;;;;;5119585;28;20181;-75
2022/12/13 08:11:51;;;;;;;31.60;20.40;;;;;;;;;;5119914;28;20204;-74
2022/12/13 08:14:18;;;;;;;29.57;20.87;;;;;;;;;;5115469;28;20707;-77
2022/12/13 08:16:45;;;;;;;27.77;19.65;;;;;;;;;;5098870;28;20845;-75
2022/12/13 08:19:12;;;;;;;29.03;20.00;;;;;;;;;;5095576;28;20193;-75
2022/12/13 08:21:40;;;;;;;32.27;19.53;;;;;;;;;;5094847;28;20476;-76
2022/12/13 08:24:07;;;;;;;30.27;19.97;;;;;;;;;;5094588;28;20967;-77
2022/12/13 08:26:35;;;;;;;34.67;21.75;;;;;;;;;;5094381;28;20467;-75
2022/12/13 08:29:03;;;;;;;30.35;19.05;;;;;;;;;;5094227;28;20198;-74
2022/12/13 08:31:30;;;;;;;29.50;20.47;;;;;;;;;;5094352;28;20569;-76
2022/12/13 08:33:57;;;;;;;25.43;18.97;;;;;;;;;;5094759;28;20440;-74
2022/12/13 08:36:24;;;;;;;28.20;19.42;;;;;;;;;;5095279;28;20471;-77
2022/12/13 08:38:52;;;;;;;33.90;20.87;;;;;;;;;;5095177;28;20202;-75
2022/12/13 08:41:19;;;;;;;28.02;20.08;;;;;;;;;;5092208;28;20494;-75
2022/12/13 08:43:48;;;;;;;28.20;20.17;;;;;;;;;;5088861;28;20222;-75
2022/12/13 08:46:15;;;;;;;28.67;20.77;;;;;;;;;;5089488;28;20460;-76
2022/12/13 08:48:42;;;;;;;29.47;20.27;;;;;;;;;;5091487;28;20438;-77
2022/12/13 08:51:11;;;;;;;25.63;20.75;;;;;;;;;;5090153;28;20435;-75
2022/12/13 08:53:38;;;;;;;28.00;18.50;;;;;;;;;;5083591;28;20717;-76
2022/12/13 08:56:07;;;;;;;32.05;20.80;;;;;;;;;;5100432;28;20530;-75
2022/12/13 08:58:34;;;;;;;29.30;19.40;;;;;;;;;;5095005;28;20206;-77
2022/12/13 09:01:05;;;;;;;27.83;21.80;;;;;;;;;;5095960;28;20483;-77
2022/12/13 09:03:32;;;;;;;29.37;18.77;;;;;;;;;;5095189;28;20491;-76
2022/12/13 09:06:06;;;;;;;25.70;19.30;;;;;;;;;;5115248;28;20470;-77
2022/12/13 09:08:33;;;;;;;29.92;21.30;;;;;;;;;;5116573;28;20423;-75
2022/12/13 09:11:01;;;;;;;35.77;20.73;;;;;;;;;;5103941;28;20225;-74
2022/12/13 09:13:29;;;;;;;27.27;18.70;;;;;;;;;;5084193;28;20482;-75
2022/12/13 09:15:56;;;;;;;26.03;18.50;;;;;;;;;;5078840;28;20466;-77
2022/12/13 09:18:24;;;;;;;28.13;19.73;;;;;;;;;;5095120;28;20458;-76
2022/12/13 09:20:51;;;;;;;24.17;18.57;;;;;;;;;;5102908;28;20500;-76
2022/12/13 09:23:18;;;;;;;23.70;17.70;;;;;;;;;;5107902;28;20480;-75
2022/12/13 09:25:45;;;;;;;27.60;18.93;;;;;;;;;;5098284;28;20464;-75
2022/12/13 09:28:12;;;;;;;25.93;18.50;;;;;;;;;;5108424;28;20440;-74
2022/12/13 09:30:39;;;;;;;20.83;16.53;;;;;;;;;;5110807;28;20428;-75
2022/12/13 09:33:07;;;;;;;28.60;18.30;;;;;;;;;;5112669;28;20431;-74
2022/12/13 09:35:38;;;;;;;23.00;17.67;;;;;;;;;;5106945;28;20584;-75
2022/12/13 09:38:05;;;;;;;20.33;15.77;;;;;;;;;;5093682;28;20947;-77
2022/12/13 09:40:33;;;;;;;21.10;16.07;;;;;;;;;;5094834;28;20468;-75
2022/12/13 09:43:01;;;;;;;24.93;17.80;;;;;;;;;;5093574;28;20855;-75
2022/12/13 09:45:29;;;;;;;20.23;15.67;;;;;;;;;;5094416;28;20464;-77
2022/12/13 09:47:57;;;;;;;21.23;16.40;;;;;;;;;;5096180;28;20456;-75
2022/12/13 09:50:26;;;;;;;24.43;16.10;;;;;;;;;;5094971;28;20479;-76
2022/12/13 09:52:55;;;;;;;23.07;16.80;;;;;;;;;;5093999;28;21167;-75
2022/12/13 09:55:23;;;;;;;23.03;16.50;;;;;;;;;;5094448;28;20439;-76
2022/12/13 09:57:50;;;;;;;20.20;15.83;;;;;;;;;;5094365;28;20450;-76
2022/12/13 10:00:19;;;;;;;23.70;16.87;;;;;;;;;;5092742;28;20483;-77
2022/12/13 10:02:47;;;;;;;23.00;15.90;;;;;;;;;;5092536;28;20487;-76
2022/12/13 10:05:16;;;;;;;22.00;15.13;;;;;;;;;;5092685;28;20491;-76
2022/12/13 10:07:43;;;;;;;21.00;15.47;;;;;;;;;;5093407;28;20443;-78
2022/12/13 10:10:13;;;;;;;20.47;15.60;;;;;;;;;;5093375;28;20436;-76
2022/12/13 10:12:42;;;;;;;23.67;17.50;;;;;;;;;;5092200;28;20436;-76
2022/12/13 10:15:11;;;;;;;21.30;16.30;;;;;;;;;;5091112;28;20448;-76
2022/12/13 10:17:40;;;;;;;19.43;14.43;;;;;;;;;;5092590;28;20443;-75
2022/12/13 10:20:13;;;;;;;19.50;15.70;;;;;;;;;;5093327;28;20476;-77
2022/12/13 10:22:41;;;;;;;18.43;13.77;;;;;;;;;;5092419;28;20562;-77
2022/12/13 10:25:09;;;;;;;25.87;15.43;;;;;;;;;;5092226;28;20700;-77
2022/12/13 10:27:39;;;;;;;21.87;14.53;;;;;;;;;;5092427;28;20442;-76
2022/12/13 10:30:09;;;;;;;19.50;15.20;;;;;;;;;;5104165;28;20530;-76
2022/12/13 10:32:43;;;;;;;26.87;15.90;;;;;;;;;;5102659;28;20484;-76
2022/12/13 10:35:21;;;;;;;22.13;15.03;;;;;;;;;;5092476;28;20424;-76
2022/12/13 10:37:48;;;;;;;22.23;15.33;;;;;;;;;;5092693;28;20562;-75
2022/12/13 10:40:24;;;;;;;21.00;13.73;;;;;;;;;;5092134;28;20948;-77
2022/12/13 10:43:06;;;;;;;22.20;15.23;;;;;;;;;;5092670;28;20490;-76
2022/12/13 10:45:33;;;;;;;19.53;14.23;;;;;;;;;;5110048;28;20455;-77
2022/12/13 10:48:00;;;;;;;21.80;15.20;;;;;;;;;;5100897;28;20431;-78
2022/12/13 10:50:28;;;;;;;20.93;14.20;;;;;;;;;;5101744;28;20444;-77
2022/12/13 10:52:56;;;;;;;19.23;14.70;;;;;;;;;;5105027;28;20443;-76
2022/12/13 10:55:27;;;;;;;19.30;13.37;;;;;;;;;;5101412;28;20970;-77
2022/12/13 10:57:56;;;;;;;19.37;13.53;;;;;;;;;;5097891;28;20436;-77
2022/12/13 11:00:36;;;;;;;17.03;13.00;;;;;;;;;;5090852;28;20463;-76
2022/12/13 11:03:03;;;;;;;17.33;13.57;;;;;;;;;;5091155;28;20505;-75
2022/12/13 11:05:32;;;;;;;24.93;14.70;;;;;;;;;;5079426;28;20487;-75
2022/12/13 11:08:13;;;;;;;23.57;13.80;;;;;;;;;;5088926;28;20551;-77
2022/12/13 11:10:40;;;;;;;17.70;13.30;;;;;;;;;;5080984;28;20510;-76
2022/12/13 11:13:07;;;;;;;16.43;13.00;;;;;;;;;;5091603;28;20440;-76
2022/12/13 11:15:38;;;;;;;20.17;15.47;;;;;;;;;;5091671;28;20464;-75
2022/12/13 11:18:07;;;;;;;21.50;14.13;;;;;;;;;;5075024;28;20439;-75
2022/12/13 11:20:38;;;;;;;19.27;13.67;;;;;;;;;;5091135;28;20443;-77
2022/12/13 11:23:07;;;;;;;16.40;13.23;;;;;;;;;;5090048;28;20506;-76
2022/12/13 11:25:37;;;;;;;19.00;13.57;;;;;;;;;;5090990;28;20464;-77
2022/12/13 11:28:11;;;;;;;18.40;13.67;;;;;;;;;;5091278;28;20451;-77
2022/12/13 11:30:43;;;;;;;17.47;13.93;;;;;;;;;;5090428;28;20431;-75
2022/12/13 11:33:18;;;;;;;20.60;14.80;;;;;;;;;;5089091;28;20423;-75
2022/12/13 11:35:55;;;;;;;19.97;14.07;;;;;;;;;;5090104;28;20459;-76
2022/12/13 11:38:26;;;;;;;16.90;14.17;;;;;;;;;;5090929;28;20437;-76
2022/12/13 11:40:57;;;;;;;19.87;14.73;;;;;;;;;;5089375;28;20451;-75
2022/12/13 11:43:29;;;;;;;21.10;15.47;;;;;;;;;;5089316;28;20566;-76
2022/12/13 11:45:59;;;;;;;24.13;15.37;;;;;;;;;;5090703;28;20834;-75
2022/12/13 11:48:32;;;;;;;21.00;14.70;;;;;;;;;;5090382;28;20496;-75
2022/12/13 11:51:00;;;;;;;22.73;17.33;;;;;;;;;;5090824;28;20467;-77
2022/12/13 11:53:29;;;;;;;21.37;16.77;;;;;;;;;;5090556;28;20447;-78
2022/12/13 11:55:59;;;;;;;22.23;15.80;;;;;;;;;;5089935;28;20463;-76
2022/12/13 11:58:32;;;;;;;19.73;15.50;;;;;;;;;;5090211;28;20452;-77
2022/12/13 12:01:03;;;;;;;22.13;16.30;;;;;;;;;;5083848;28;20467;-76
2022/12/13 12:03:35;;;;;;;23.57;15.70;;;;;;;;;;5088306;28;20486;-77
2022/12/13 12:06:05;;;;;;;20.67;16.17;;;;;;;;;;5084715;28;20456;-76
2022/12/13 12:08:35;;;;;;;22.60;16.37;;;;;;;;;;5085648;28;20496;-76
2022/12/13 12:11:05;;;;;;;25.53;17.20;;;;;;;;;;5084899;28;20453;-77
2022/12/13 12:13:35;;;;;;;23.40;16.47;;;;;;;;;;5085953;28;20879;-75
2022/12/13 12:16:07;;;;;;;28.23;17.23;;;;;;;;;;5078837;28;20463;-76
2022/12/13 12:18:34;;;;;;;25.33;15.77;;;;;;;;;;5089642;28;20803;-77
2022/12/13 12:21:08;;;;;;;21.60;16.83;;;;;;;;;;5089790;28;20432;-74
2022/12/13 12:23:41;;;;;;;23.73;16.70;;;;;;;;;;5089249;28;20500;-76
2022/12/13 12:26:11;;;;;;;29.40;16.57;;;;;;;;;;5090210;28;20879;-77
2022/12/13 12:28:47;;;;;;;21.40;16.50;;;;;;;;;;5073659;28;20455;-77
2022/12/13 12:31:21;;;;;;;20.77;15.70;;;;;;;;;;5087480;28;20539;-77
2022/12/13 12:33:54;;;;;;;22.50;16.47;;;;;;;;;;5089822;28;20439;-75
2022/12/13 12:36:31;;;;;;;25.67;17.07;;;;;;;;;;5089625;28;20456;-76
2022/12/13 12:39:13;;;;;;;20.50;15.83;;;;;;;;;;5090071;28;20439;-78
2022/12/13 12:41:51;;;;;;;25.50;17.23;;;;;;;;;;5069531;28;20435;-77
2022/12/13 12:44:27;;;;;;;21.53;16.10;;;;;;;;;;5095333;28;20489;-75
2022/12/13 12:47:02;;;;;;;23.20;16.00;;;;;;;;;;5094335;28;20688;-75
2022/12/13 12:49:41;;;;;;;21.50;16.20;;;;;;;;;;5094708;28;20504;-75
2022/12/13 12:52:13;;;;;;;22.33;17.07;;;;;;;;;;5098485;28;20443;-77
2022/12/13 12:54:44;;;;;;;30.00;16.47;;;;;;;;;;5100856;28;20791;-76
2022/12/13 12:57:16;;;;;;;20.63;15.17;;;;;;;;;;5100988;28;21049;-77
2022/12/13 12:59:48;;;;;;;24.33;14.30;;;;;;;;;;5102011;28;20957;-76
2022/12/13 13:02:19;;;;;;;23.00;14.90;;;;;;;;;;5097888;28;20449;-75
2022/12/13 13:04:49;;;;;;;18.70;15.20;;;;;;;;;;5093525;28;20507;-75
2022/12/13 13:07:18;;;;;;;23.50;16.17;;;;;;;;;;5097159;28;20464;-76
2022/12/13 13:09:45;;;;;;;18.30;14.60;;;;;;;;;;5100202;28;20455;-74
2022/12/13 13:12:13;;;;;;;24.33;16.87;;;;;;;;;;5101019;28;20451;-73
2022/12/13 13:14:41;;;;;;;32.37;16.00;;;;;;;;;;5097684;28;20466;-77
2022/12/13 13:17:27;;;;;;;23.53;16.30;;;;;;;;;;5093284;28;20464;-75
2022/12/13 13:20:11;;;;;;;19.27;15.50;;;;;;;;;;5094462;28;20943;-75
2022/12/13 13:22:39;;;;;;;25.07;16.10;;;;;;;;;;5093734;28;20460;-76
2022/12/13 13:25:26;;;;;;;19.60;14.67;;;;;;;;;;5091367;28;20486;-77
2022/12/13 13:28:00;;;;;;;23.00;14.50;;;;;;;;;;5095740;28;20478;-76
2022/12/13 13:30:28;;;;;;;21.67;15.40;;;;;;;;;;5093753;28;20430;-75
2022/12/13 13:32:56;;;;;;;24.07;16.47;;;;;;;;;;5092845;28;20448;-75
2022/12/13 13:35:52;;;;;;;22.47;16.47;;;;;;;;;;5093534;28;20468;-76
2022/12/13 13:38:48;;;;;;;22.87;16.73;;;;;;;;;;5090865;28;20455;-76
2022/12/13 13:41:30;;;;;;;30.90;16.67;;;;;;;;;;5094269;28;20949;-76
2022/12/13 13:44:01;;;;;;;23.80;16.10;;;;;;;;;;5092761;28;20486;-74
2022/12/13 13:46:28;;;;;;;21.90;15.97;;;;;;;;;;5095407;28;21083;-76
2022/12/13 13:48:58;;;;;;;21.63;14.90;;;;;;;;;;5095810;28;20942;-76
2022/12/13 13:51:44;;;;;;;19.13;14.23;;;;;;;;;;5093293;28;20436;-75
2022/12/13 13:54:30;;;;;;;18.83;14.90;;;;;;;;;;5091174;28;20446;-75
2022/12/13 13:57:12;;;;;;;19.00;13.30;;;;;;;;;;5092339;28;20459;-75
2022/12/13 13:59:57;;;;;;;25.37;14.50;;;;;;;;;;5088935;28;20451;-77
2022/12/13 14:02:54;;;;;;;23.13;13.90;;;;;;;;;;5092162;28;20791;-75
2022/12/13 14:05:40;;;;;;;19.03;13.50;;;;;;;;;;5092407;28;20432;-76
2022/12/13 14:08:19;;;;;;;15.07;11.93;;;;;;;;;;5091902;28;20469;-75
2022/12/13 14:10:50;;;;;;;19.47;12.93;;;;;;;;;;5091915;28;20809;-75
2022/12/13 14:13:45;;;;;;;18.13;12.33;;;;;;;;;;5091349;28;20489;-76
2022/12/13 14:16:27;;;;;;;16.73;12.10;;;;;;;;;;5091893;28;20475;-75
2022/12/13 14:19:19;;;;;;;15.73;10.87;;;;;;;;;;5092243;28;20451;-75
2022/12/13 14:21:52;;;;;;;21.13;13.23;;;;;;;;;;5092081;28;20770;-76
2022/12/13 14:24:22;;;;;;;20.30;13.47;;;;;;;;;;5090088;28;20482;-76
2022/12/13 14:27:00;;;;;;;23.33;14.77;;;;;;;;;;5090644;28;20869;-75
2022/12/13 14:29:29;;;;;;;28.70;13.87;;;;;;;;;;5090985;28;20451;-76
2022/12/13 14:31:56;;;;;;;28.37;16.23;;;;;;;;;;5091175;28;20978;-75
2022/12/13 14:34:24;;;;;;;25.00;14.23;;;;;;;;;;5090765;28;20551;-76